WetterOnline ( https://www.wetteronline.de )

Wetter aktuell List

Aktuelles Wetter: List/Sylt (29m)

6-stündlich | Neueste Meldungen
Ortszeit Temperatur Wetter
Do, 26.11. 13:00 10.5° C wolkig
Do, 26.11. 7:00 8.7° C bedeckt
Do, 26.11. 1:00 9.1° C bedeckt
Mi, 25.11. 19:00 8.3° C bedeckt
Mi, 25.11. 13:00 8.1° C bedeckt
Mi, 25.11. 7:00 7.2° C bewölkt
Mi, 25.11. 1:00 8.6° C bedeckt
Di, 24.11. 19:00 9.6° C bedeckt
Ortszeit Temperatur Wetter
Do, 26.11. 14:30 10.0° C fast wolkenlos
Do, 26.11. 14:20 10.0° C fast wolkenlos
Do, 26.11. 14:10 10.0° C fast wolkenlos
Do, 26.11. 14:00 10.1° C wolkenlos
Do, 26.11. 13:50 10.1° C wolkenlos
Do, 26.11. 13:40 10.2° C wolkenlos
Do, 26.11. 13:30 9.9° C leicht bewölkt
Do, 26.11. 13:00 10.5° C wolkig
Do, 26.11. 12:30 10.4° C leicht bewölkt
Do, 26.11. 12:00 9.2° C wolkenlos
Do, 26.11. 11:30 8.9° C leicht bewölkt
Ortszeit Relative Feuchte Sichtweite
Do, 26.11. 13:00 72% 35 km
Do, 26.11. 7:00 96% 19 km
Do, 26.11. 1:00 93% 6 km
Mi, 25.11. 19:00 85% 13 km
Mi, 25.11. 13:00 88% 13 km
Mi, 25.11. 7:00 91% 8 km
Mi, 25.11. 1:00 91% 7 km
Di, 24.11. 19:00 91% 8 km
Ortszeit Relative Feuchte Sichtweite
Do, 26.11. 14:30 75% 40 km
Do, 26.11. 14:20 75% -
Do, 26.11. 14:10 75% -
Do, 26.11. 14:00 74% 45 km
Do, 26.11. 13:50 74% -
Do, 26.11. 13:40 76% -
Do, 26.11. 13:30 74% 40 km
Do, 26.11. 13:00 72% 35 km
Do, 26.11. 12:30 75% 50 km
Do, 26.11. 12:00 78% 35 km
Do, 26.11. 11:30 78% 40 km
Ortszeit Niederschlagsmenge Niederschlagsart
Do, 26.11. 13:00 0.0 l/m2 in 6 Std. -
Do, 26.11. 7:00 0.1 l/m2 in 12 Std. Regen
Do, 26.11. 1:00 0.0 l/m2 in 6 Std. -
Mi, 25.11. 19:00 0.0 l/m2 in 12 Std. -
Mi, 25.11. 13:00 0.0 l/m2 in 6 Std. -
Mi, 25.11. 7:00 0.0 l/m2 in 12 Std. -
Mi, 25.11. 1:00 0.0 l/m2 in 6 Std. -
Di, 24.11. 19:00 0.1 l/m2 in 12 Std. Sprühregen
Ortszeit Niederschlagsmenge Niederschlagsart
Do, 26.11. 14:30 0.0 l/m2 in 1 Std. -
Do, 26.11. 14:20 keine Meldung -
Do, 26.11. 14:10 keine Meldung -
Do, 26.11. 14:00 0.0 l/m2 in 1 Std. -
Do, 26.11. 13:50 keine Meldung -
Do, 26.11. 13:40 keine Meldung -
Do, 26.11. 13:30 0.0 l/m2 in 1 Std. -
Do, 26.11. 13:00 0.0 l/m2 in 1 Std. -
Do, 26.11. 12:30 0.0 l/m2 in 1 Std. -
Do, 26.11. 12:00 0.0 l/m2 in 1 Std. -
Do, 26.11. 11:30 0.0 l/m2 in 1 Std. -
Ortszeit Stärke Spitze Richtung
km/h Bft. km/h Grad Sektor
Do, 26.11. 13:00 24 4 43 290° W
Do, 26.11. 7:00 33 5 44 320° NW
Do, 26.11. 1:00 22 4 46 210° SW
Mi, 25.11. 19:00 24 4 35 210° SW
Mi, 25.11. 13:00 22 4 47 200° S
Mi, 25.11. 7:00 28 4 43 180° S
Mi, 25.11. 1:00 24 4 41 200° S
Di, 24.11. 19:00 25 4 50 210° SW
Ortszeit Stärke Spitze Richtung
km/h Bft. km/h Grad Sektor
Do, 26.11. 14:30 18 3 29 290° W
Do, 26.11. 14:20 18 3 - 290° W
Do, 26.11. 14:10 18 3 - 290° W
Do, 26.11. 14:00 20 4 30 300° NW
Do, 26.11. 13:50 20 4 - 300° NW
Do, 26.11. 13:40 18 3 - 300° NW
Do, 26.11. 13:30 20 4 30 300° NW
Do, 26.11. 13:00 24 4 35 290° W
Do, 26.11. 12:30 22 4 29 300° NW
Do, 26.11. 12:00 18 3 36 300° NW
Do, 26.11. 11:30 19 3 35 300° NW
Ortszeit Untergrenze Bedeckung Gattung
total tief tief mittel hoch
Do, 26.11. 13:00 690 m 7/8 4/8 - - -
Do, 26.11. 7:00 180 m 8/8 8/8 - - -
Do, 26.11. 1:00 270 m 8/8 8/8 - - -
Mi, 25.11. 19:00 360 m 8/8 8/8 - - -
Mi, 25.11. 13:00 240 m 8/8 8/8 - - -
Mi, 25.11. 7:00 240 m 7/8 6/8 - - -
Mi, 25.11. 1:00 5400 m 8/8 8/8 - - -
Di, 24.11. 19:00 270 m 8/8 8/8 - - -
Ortszeit Bedeckungsgrad in Achtel und Wolkenuntergrenze
Do, 26.11. 14:30 1(690m)
Do, 26.11. 14:20 1(690m)
Do, 26.11. 14:10 1(690m)
Do, 26.11. 14:00 1(690m)
Do, 26.11. 13:50 keine Wolken
Do, 26.11. 13:40 keine Wolken
Do, 26.11. 13:30 1(780m) 3(4800m)
Do, 26.11. 13:00 4(690m) 7(4800m) 7(5700m)
Do, 26.11. 12:30 2(750m) 3(1080m) 4(5100m)
Do, 26.11. 12:00 1(810m)
Do, 26.11. 11:30 3(1170m) 4(1800m)
Ortszeit Luftdruck NN (hPa) Tendenz (hPa in 3 Std.)
Do, 26.11. 13:00 1018 + 0,7
Do, 26.11. 7:00 1015 + 0,9
Do, 26.11. 1:00 1015 0,0
Mi, 25.11. 19:00 1015 + 0,3
Mi, 25.11. 13:00 1014 - 0,2
Mi, 25.11. 7:00 1014 - 1,0
Mi, 25.11. 1:00 1016 - 0,9
Di, 24.11. 19:00 1018 + 0,2
Ortszeit Luftdruck NN (hPa) Tendenz (hPa in 3 Std.)
Do, 26.11. 14:30 1018 + 0,4
Do, 26.11. 14:20 1018 keine Meldung
Do, 26.11. 14:10 1018 keine Meldung
Do, 26.11. 14:00 1018 + 0,5
Do, 26.11. 13:50 1018 keine Meldung
Do, 26.11. 13:40 1018 keine Meldung
Do, 26.11. 13:30 1018 + 0,7
Do, 26.11. 13:00 1018 + 0,7
Do, 26.11. 12:30 1018 + 0,9
Do, 26.11. 12:00 1018 + 1,0
Do, 26.11. 11:30 1018 + 1,1
Ortszeit Schneehöhe (cm)
Do, 26.11. 13:00 0
Do, 26.11. 7:00 0
Do, 26.11. 1:00 0
Mi, 25.11. 19:00 0
Mi, 25.11. 13:00 0
Mi, 25.11. 7:00 0
Mi, 25.11. 1:00 0
Di, 24.11. 19:00 0
Ortszeit Schneehöhe (cm)
Do, 26.11. 14:30 0
Do, 26.11. 14:20 0
Do, 26.11. 14:10 0
Do, 26.11. 14:00 0
Do, 26.11. 13:50 0
Do, 26.11. 13:40 0
Do, 26.11. 13:30 0
Do, 26.11. 13:00 0
Do, 26.11. 12:30 0
Do, 26.11. 12:00 0
Do, 26.11. 11:30 0
Link zu dieser Seite / Seite empfehlen

Das Wetter in ...